Savage Insight — WDF9252 — position and weather

sailwx.info

Track history (hours):
 
Tides and Currents Weather Stations Pressure Air Temp Water Temp Dewpoint Dewpoint Depression Visibility Wind Speed Wind Dir Waves Ship Positions

Savage Insight

Owner: Savage Inland Marine, Gibson, LA. More information available from US FCC via Universal Licensing System and Coast Guard Vessel Documentation Center.

Last reported at 2017-Nov-19 04:38 UTC. Time now 2017-Nov-22 07:21 UTC.
Position N 29°33' W 090°24'.

Length 32 m; draft 10 m.

Type: Towing. MMSI: 367503240.

Date/timePositionNaut miles runAvg speedWind from/ knotsBaromVisibWave heightAir tempDewpointWater temp
2017-Nov-19 04:38N 29°33' W 090°24'1 6.8
2017-Nov-19 04:26N 29°33' W 090°26'3 6.8
2017-Nov-19 04:00N 29°34' W 090°29'3 6.9
2017-Nov-19 03:30N 29°34' W 090°33'3 6.6
2017-Nov-19 03:00N 29°35' W 090°37'3 5.4
2017-Nov-19 02:30N 29°36' W 090°39'3 5.4
2017-Nov-19 02:00N 29°36' W 090°43'2 4.8
2017-Nov-19 01:31N 29°34' W 090°43'3 6.1
2017-Nov-19 01:00N 29°32' W 090°46'4 7.1
2017-Nov-19 00:30N 29°32' W 090°50'4 7.0
2017-Nov-18 23:56N 29°33' W 090°55'4 6.9
2017-Nov-18 23:25N 29°35' W 090°58'53 5.5
2017-Nov-18 13:46N 29°50' W 091°57'2 6.5
2017-Nov-18 13:29N 29°50' W 091°59'3 6.8
2017-Nov-18 13:00N 29°49' W 092°03'3 6.6
2017-Nov-18 12:30N 29°48' W 092°06'3 6.5
2017-Nov-18 12:00N 29°47' W 092°10'2 4.9
2017-Nov-18 11:30N 29°47' W 092°12'2 4.2
2017-Nov-18 11:00N 29°48' W 092°15'3 6.3
2017-Nov-18 10:31N 29°50' W 092°18'3 6.2
2017-Nov-18 10:00N 29°51' W 092°21'38 6.2
2017-Nov-18 03:56N 29°56' W 093°04'3 6.4
2017-Nov-18 03:30N 29°56' W 093°07'3 6.0
2017-Nov-18 03:00N 29°57' W 093°10'3 5.4
2017-Nov-18 02:30N 29°59' W 093°12'3 5.4
2017-Nov-18 02:00N 30°01' W 093°14'3 5.6
2017-Nov-18 01:30N 30°04' W 093°16'2 4.1
2017-Nov-18 01:00N 30°05' W 093°18'2 3.1
2017-Nov-18 00:30N 30°06' W 093°19'3 6.1
2017-Nov-18 00:00N 30°04' W 093°22'3 6.3
2017-Nov-17 23:30N 30°04' W 093°25'3 6.5
2017-Nov-17 23:00N 30°04' W 093°29'3 6.5
2017-Nov-17 22:29N 30°04' W 093°33'3 6.1
2017-Nov-17 21:58N 30°04' W 093°37'74 3.4
2017-Nov-17 00:23N 29°30' W 094°52'3 6.7
2017-Nov-17 00:00N 29°32' W 094°54'3 6.7
2017-Nov-16 23:30N 29°34' W 094°56'3 6.8
2017-Nov-16 23:00N 29°37' W 094°58'3 6.8
2017-Nov-16 22:30N 29°41' W 094°59'4 6.1
2017-Nov-16 21:52N 29°44' W 095°02'4 0.2
2017-Nov-15 22:11N 29°44' W 095°07'2 4.8
2017-Nov-15 21:50N 29°46' W 095°05'2 0.1
2017-Nov-14 22:27N 29°47' W 095°05'3 1.3
2017-Nov-14 20:29N 29°45' W 095°04'3 4.5
2017-Nov-14 19:51N 29°43' W 095°01'2 5.5
2017-Nov-14 19:30N 29°42' W 094°60'3 6.5
2017-Nov-14 19:00N 29°39' W 094°58'4 7.4
2017-Nov-14 18:30N 29°35' W 094°56'76 4.5
2017-Nov-14 01:42N 30°04' W 093°35'1 5.2
2017-Nov-14 01:29N 30°04' W 093°34'3 5.2
2017-Nov-14 00:59N 30°04' W 093°31'3 5.3
2017-Nov-14 00:29N 30°04' W 093°28'7 4.5
2017-Nov-13 22:49N 30°06' W 093°19'1 3.4
2017-Nov-13 22:29N 30°06' W 093°18'1 2.2
2017-Nov-13 21:59N 30°05' W 093°17'129 4.1
2017-Nov-12 14:16N 29°32' W 090°53'2 5.4
2017-Nov-12 13:54N 29°32' W 090°51'2 5.7
2017-Nov-12 13:31N 29°32' W 090°48'2 4.9
2017-Nov-12 13:00N 29°33' W 090°45'2 4.4
2017-Nov-12 12:30N 29°34' W 090°43'2 4.0
2017-Nov-12 12:01N 29°36' W 090°43'1 2.6
2017-Nov-12 11:31N 29°36' W 090°41'2 4.1
2017-Nov-12 11:01N 29°36' W 090°39'2 4.7
2017-Nov-12 10:30N 29°35' W 090°37'2 3.3
2017-Nov-12 10:00N 29°34' W 090°35'2 3.5
2017-Nov-12 09:31N 29°34' W 090°33'1 3.0
2017-Nov-12 09:01N 29°34' W 090°31'3 5.0
2017-Nov-12 08:31N 29°34' W 090°28'  
Track history (hours):
 
Tides and Currents Weather Stations Pressure Air Temp Water Temp Dewpoint Dewpoint Depression Visibility Wind Speed Wind Dir Waves Ship Positions

Savage Insight

Owner: Savage Inland Marine, Gibson, LA. More information available from US FCC via Universal Licensing System and Coast Guard Vessel Documentation Center.

Last reported at 2017-Nov-19 04:38 UTC. Time now 2017-Nov-22 07:21 UTC.
Position N 29°33' W 090°24'.

Length 32 m; draft 10 m.

Type: Towing. MMSI: 367503240.

Date/timePositionNaut miles runAvg speedWind from/ knotsBaromVisibWave heightAir tempDewpointWater temp
2017-Nov-19 04:38N 29°33' W 090°24'1 6.8
2017-Nov-19 04:26N 29°33' W 090°26'3 6.8
2017-Nov-19 04:00N 29°34' W 090°29'3 6.9
2017-Nov-19 03:30N 29°34' W 090°33'3 6.6
2017-Nov-19 03:00N 29°35' W 090°37'3 5.4
2017-Nov-19 02:30N 29°36' W 090°39'3 5.4
2017-Nov-19 02:00N 29°36' W 090°43'2 4.8
2017-Nov-19 01:31N 29°34' W 090°43'3 6.1
2017-Nov-19 01:00N 29°32' W 090°46'4 7.1
2017-Nov-19 00:30N 29°32' W 090°50'4 7.0
2017-Nov-18 23:56N 29°33' W 090°55'4 6.9
2017-Nov-18 23:25N 29°35' W 090°58'53 5.5
2017-Nov-18 13:46N 29°50' W 091°57'2 6.5
2017-Nov-18 13:29N 29°50' W 091°59'3 6.8
2017-Nov-18 13:00N 29°49' W 092°03'3 6.6
2017-Nov-18 12:30N 29°48' W 092°06'3 6.5
2017-Nov-18 12:00N 29°47' W 092°10'2 4.9
2017-Nov-18 11:30N 29°47' W 092°12'2 4.2
2017-Nov-18 11:00N 29°48' W 092°15'3 6.3
2017-Nov-18 10:31N 29°50' W 092°18'3 6.2
2017-Nov-18 10:00N 29°51' W 092°21'38 6.2
2017-Nov-18 03:56N 29°56' W 093°04'3 6.4
2017-Nov-18 03:30N 29°56' W 093°07'3 6.0
2017-Nov-18 03:00N 29°57' W 093°10'3 5.4
2017-Nov-18 02:30N 29°59' W 093°12'3 5.4
2017-Nov-18 02:00N 30°01' W 093°14'3 5.6
2017-Nov-18 01:30N 30°04' W 093°16'2 4.1
2017-Nov-18 01:00N 30°05' W 093°18'2 3.1
2017-Nov-18 00:30N 30°06' W 093°19'3 6.1
2017-Nov-18 00:00N 30°04' W 093°22'3 6.3
2017-Nov-17 23:30N 30°04' W 093°25'3 6.5
2017-Nov-17 23:00N 30°04' W 093°29'3 6.5
2017-Nov-17 22:29N 30°04' W 093°33'3 6.1
2017-Nov-17 21:58N 30°04' W 093°37'74 3.4
2017-Nov-17 00:23N 29°30' W 094°52'3 6.7
2017-Nov-17 00:00N 29°32' W 094°54'3 6.7
2017-Nov-16 23:30N 29°34' W 094°56'3 6.8
2017-Nov-16 23:00N 29°37' W 094°58'3 6.8
2017-Nov-16 22:30N 29°41' W 094°59'4 6.1
2017-Nov-16 21:52N 29°44' W 095°02'4 0.2
2017-Nov-15 22:11N 29°44' W 095°07'2 4.8
2017-Nov-15 21:50N 29°46' W 095°05'2 0.1
2017-Nov-14 22:27N 29°47' W 095°05'3 1.3
2017-Nov-14 20:29N 29°45' W 095°04'3 4.5
2017-Nov-14 19:51N 29°43' W 095°01'2 5.5
2017-Nov-14 19:30N 29°42' W 094°60'3 6.5
2017-Nov-14 19:00N 29°39' W 094°58'4 7.4
2017-Nov-14 18:30N 29°35' W 094°56'76 4.5
2017-Nov-14 01:42N 30°04' W 093°35'1 5.2
2017-Nov-14 01:29N 30°04' W 093°34'3 5.2
2017-Nov-14 00:59N 30°04' W 093°31'3 5.3
2017-Nov-14 00:29N 30°04' W 093°28'7 4.5
2017-Nov-13 22:49N 30°06' W 093°19'1 3.4
2017-Nov-13 22:29N 30°06' W 093°18'1 2.2
2017-Nov-13 21:59N 30°05' W 093°17'129 4.1
2017-Nov-12 14:16N 29°32' W 090°53'2 5.4
2017-Nov-12 13:54N 29°32' W 090°51'2 5.7
2017-Nov-12 13:31N 29°32' W 090°48'2 4.9
2017-Nov-12 13:00N 29°33' W 090°45'2 4.4
2017-Nov-12 12:30N 29°34' W 090°43'2 4.0
2017-Nov-12 12:01N 29°36' W 090°43'1 2.6
2017-Nov-12 11:31N 29°36' W 090°41'2 4.1
2017-Nov-12 11:01N 29°36' W 090°39'2 4.7
2017-Nov-12 10:30N 29°35' W 090°37'2 3.3
2017-Nov-12 10:00N 29°34' W 090°35'2 3.5
2017-Nov-12 09:31N 29°34' W 090°33'1 3.0
2017-Nov-12 09:01N 29°34' W 090°31'3 5.0
2017-Nov-12 08:31N 29°34' W 090°28'  

Dump ship's entire track history